Terminal Aerodrome Forecast
Issued by NWS Shreveport, LA

Home | Current Version | Previous Version | Text Only | Print | Product List | Glossary On
Versions: 1 2 3 4 5 6 7 8 9 10 11 12 13 14
000
FTUS44 KSHV 261700 RRA
TAFLFK
TAF
KLFK 261749Z 2618/2718 21007KT P6SM SCT040 SCT300
     FM270100 18005KT P6SM BKN045
     FM270500 18006KT P6SM SCT045 SCT300
     FM271100 19002KT 4SM BR SCT015 BKN250
      TEMPO 2711/2714 3SM BR BKN015 BKN250
     FM271400 22005KT P6SM SCT035 SCT300=

USA.gov is the U.S. government's official web portal to all federal, state and local government web resources and services.